Time;durP1;ratioP1;P1;durP2;ratioP2;P2;SDS_P1;SDS_P2;PMS_P1;PMS_P2;Temp;Humidity;BMP_temperature;BMP_pressure;BME280_temperature;BME280_humidity;BME280_pressure;Samples;Min_cycle;Max_cycle;Signal;HPM_P1;HPM_P2
2022/02/05 00:01:12;;;;;;;7.00;3.60;;;;;;;;;;4979969;28;20224;-73
2022/02/05 00:03:44;;;;;;;8.00;3.77;;;;;;;;;;5012034;28;20267;-73
2022/02/05 00:06:15;;;;;;;7.17;2.90;;;;;;;;;;4983047;28;20253;-74
2022/02/05 00:11:36;;;;;;;8.93;3.87;;;;;;;;;;5010666;28;20233;-72
2022/02/05 00:33:18;;;;;;;9.20;3.40;;;;;;;;;;4996110;28;20252;-72
2022/02/05 00:41:20;;;;;;;8.53;3.00;;;;;;;;;;4985334;28;20224;-71
2022/02/05 00:43:53;;;;;;;7.43;2.70;;;;;;;;;;4975317;28;20285;-72
2022/02/05 00:46:20;;;;;;;3.43;2.27;;;;;;;;;;4993993;28;20266;-73
2022/02/05 00:48:49;;;;;;;5.00;2.20;;;;;;;;;;4977839;28;20225;-73
2022/02/05 00:54:18;;;;;;;3.37;2.00;;;;;;;;;;4996848;28;20697;-73
2022/02/05 00:59:13;;;;;;;3.70;1.93;;;;;;;;;;4993573;28;20351;-72
2022/02/05 01:01:39;;;;;;;4.00;2.00;;;;;;;;;;4993019;28;20233;-73
2022/02/05 01:04:07;;;;;;;4.17;2.20;;;;;;;;;;5011047;28;20362;-73
2022/02/05 01:06:33;;;;;;;5.27;3.57;;;;;;;;;;4988504;28;20629;-73
2022/02/05 01:09:05;;;;;;;3.63;3.07;;;;;;;;;;4993064;28;20288;-72
2022/02/05 01:11:33;;;;;;;3.77;2.33;;;;;;;;;;4978319;28;20232;-73
2022/02/05 01:14:00;;;;;;;2.60;2.33;;;;;;;;;;4990794;28;20217;-73
2022/02/05 01:18:56;;;;;;;5.00;2.47;;;;;;;;;;4990450;28;20220;-72
2022/02/05 01:21:50;;;;;;;2.80;2.47;;;;;;;;;;4973558;28;20259;-72
2022/02/05 01:24:14;;;;;;;2.87;2.67;;;;;;;;;;4991068;28;20225;-72
2022/02/05 01:26:47;;;;;;;6.73;3.20;;;;;;;;;;4974673;28;20229;-71
2022/02/05 01:29:58;;;;;;;5.93;3.50;;;;;;;;;;4973196;28;20229;-72
2022/02/05 01:32:16;;;;;;;6.43;4.00;;;;;;;;;;4987887;28;20218;-72
2022/02/05 01:34:56;;;;;;;6.57;4.00;;;;;;;;;;4975816;28;20853;-71
2022/02/05 01:56:40;;;;;;;10.67;5.83;;;;;;;;;;4999247;28;20243;-72
2022/02/05 01:59:19;;;;;;;10.57;5.37;;;;;;;;;;4997548;28;20220;-73
2022/02/05 02:16:17;;;;;;;9.07;4.43;;;;;;;;;;5014660;28;20221;-73
2022/02/05 02:26:19;;;;;;;10.33;4.33;;;;;;;;;;4998071;28;20236;-72
2022/02/05 02:28:55;;;;;;;9.83;4.60;;;;;;;;;;5013759;28;20229;-73
2022/02/05 02:31:25;;;;;;;9.37;4.30;;;;;;;;;;4982723;28;20715;-72
2022/02/05 02:33:57;;;;;;;5.20;3.27;;;;;;;;;;4997958;28;20339;-72
2022/02/05 02:38:55;;;;;;;14.80;4.27;;;;;;;;;;5013272;28;20326;-73
2022/02/05 02:41:28;;;;;;;8.83;3.50;;;;;;;;;;5013659;28;20225;-73
2022/02/05 02:43:56;;;;;;;11.07;3.90;;;;;;;;;;4996795;28;20244;-72
2022/02/05 02:46:29;;;;;;;6.97;3.60;;;;;;;;;;4995739;28;20229;-73
2022/02/05 02:49:03;;;;;;;7.50;3.50;;;;;;;;;;5013278;28;20225;-73
2022/02/05 02:57:25;;;;;;;6.60;3.67;;;;;;;;;;5012367;28;20614;-74
2022/02/05 02:59:58;;;;;;;6.77;3.30;;;;;;;;;;4998709;28;20227;-72
2022/02/05 03:02:26;;;;;;;7.63;3.60;;;;;;;;;;4995818;28;20233;-72
2022/02/05 03:04:54;;;;;;;5.33;3.27;;;;;;;;;;4979941;28;20225;-72
2022/02/05 03:07:23;;;;;;;8.63;3.47;;;;;;;;;;4995451;28;20213;-73
2022/02/05 03:09:49;;;;;;;6.20;3.27;;;;;;;;;;4996298;28;20228;-72
2022/02/05 03:12:17;;;;;;;6.53;3.40;;;;;;;;;;5010965;28;20252;-73
2022/02/05 03:14:47;;;;;;;6.17;3.20;;;;;;;;;;5013455;28;20233;-72
2022/02/05 03:17:24;;;;;;;8.90;3.03;;;;;;;;;;4995112;28;20701;-72
2022/02/05 03:19:53;;;;;;;8.43;3.03;;;;;;;;;;4997060;28;20235;-73
2022/02/05 03:22:22;;;;;;;7.27;3.53;;;;;;;;;;4994434;28;20224;-72
2022/02/05 03:24:50;;;;;;;5.10;3.20;;;;;;;;;;5012580;28;20229;-72
2022/02/05 03:27:19;;;;;;;6.67;3.20;;;;;;;;;;4995765;28;20213;-73
2022/02/05 03:29:49;;;;;;;6.10;3.20;;;;;;;;;;5012190;28;20248;-73
2022/02/05 03:32:19;;;;;;;6.07;3.07;;;;;;;;;;5010259;28;20347;-72
2022/02/05 03:34:45;;;;;;;5.80;3.07;;;;;;;;;;4989884;28;20225;-72
2022/02/05 03:37:13;;;;;;;6.13;3.10;;;;;;;;;;5009220;28;20644;-73
2022/02/05 03:39:41;;;;;;;6.40;2.90;;;;;;;;;;5011587;28;20335;-73
2022/02/05 03:42:09;;;;;;;7.43;3.20;;;;;;;;;;4979272;28;20225;-72
2022/02/05 03:44:37;;;;;;;8.17;3.23;;;;;;;;;;4979305;28;20646;-72
2022/02/05 03:47:03;;;;;;;5.90;3.23;;;;;;;;;;5012469;28;20248;-73
2022/02/05 03:49:33;;;;;;;9.60;3.33;;;;;;;;;;4979300;28;20231;-71
2022/02/05 03:52:01;;;;;;;6.60;2.80;;;;;;;;;;4995407;28;20225;-72
2022/02/05 03:54:31;;;;;;;6.50;2.93;;;;;;;;;;5010951;28;20712;-73
2022/02/05 03:57:01;;;;;;;7.17;2.53;;;;;;;;;;4995620;28;20216;-72
2022/02/05 03:59:31;;;;;;;9.63;3.73;;;;;;;;;;4979647;28;20248;-73
2022/02/05 04:01:57;;;;;;;6.30;3.07;;;;;;;;;;4994697;28;20909;-71
2022/02/05 04:04:28;;;;;;;3.83;2.53;;;;;;;;;;5009325;28;20320;-71
2022/02/05 04:06:56;;;;;;;7.50;2.77;;;;;;;;;;5007429;28;20255;-72
2022/02/05 04:09:27;;;;;;;10.67;3.10;;;;;;;;;;5013315;28;20711;-72
2022/02/05 04:15:53;;;;;;;9.07;3.03;;;;;;;;;;5011632;28;20288;-71
2022/02/05 04:17:27;;;;;;;6.97;2.53;;;;;;;;;;5004788;28;20229;-73
2022/02/05 04:19:55;;;;;;;7.57;3.13;;;;;;;;;;5010977;28;20705;-72
2022/02/05 04:22:23;;;;;;;6.10;2.77;;;;;;;;;;4993618;28;20579;-73
2022/02/05 04:24:48;;;;;;;10.00;3.03;;;;;;;;;;4975126;28;20229;-72
2022/02/05 04:27:18;;;;;;;10.93;3.00;;;;;;;;;;5006215;28;20225;-73
2022/02/05 04:29:46;;;;;;;6.40;2.80;;;;;;;;;;4990896;28;20706;-72
2022/02/05 04:32:13;;;;;;;9.63;3.57;;;;;;;;;;5010212;28;20229;-72
2022/02/05 04:34:39;;;;;;;10.53;3.07;;;;;;;;;;5007798;28;20229;-73
2022/02/05 04:37:05;;;;;;;7.53;2.83;;;;;;;;;;5015236;28;20224;-74
2022/02/05 04:39:35;;;;;;;7.10;2.80;;;;;;;;;;4989866;28;20231;-74
2022/02/05 04:42:12;;;;;;;7.53;2.50;;;;;;;;;;4984157;28;20616;-72
2022/02/05 04:47:43;;;;;;;12.40;2.73;;;;;;;;;;4995556;28;20236;-74
2022/02/05 05:04:01;;;;;;;5.60;2.00;;;;;;;;;;4993249;28;20778;-74
2022/02/05 05:06:51;;;;;;;6.13;2.10;;;;;;;;;;5006529;28;20232;-73
2022/02/05 05:09:19;;;;;;;7.47;1.73;;;;;;;;;;4996136;28;20223;-73
2022/02/05 05:22:00;;;;;;;7.07;2.10;;;;;;;;;;4977300;28;20604;-72
2022/02/05 05:24:26;;;;;;;5.23;1.67;;;;;;;;;;4977072;28;20267;-73
2022/02/05 05:26:51;;;;;;;5.20;1.87;;;;;;;;;;5010173;28;20698;-73
2022/02/05 05:29:20;;;;;;;7.37;2.27;;;;;;;;;;4992712;28;20699;-73
2022/02/05 05:31:45;;;;;;;4.10;1.43;;;;;;;;;;5009097;28;20494;-73
2022/02/05 05:34:14;;;;;;;6.93;1.80;;;;;;;;;;4975777;28;20220;-73
2022/02/05 05:36:39;;;;;;;5.80;1.73;;;;;;;;;;4983138;28;20222;-73
2022/02/05 05:39:12;;;;;;;9.27;2.20;;;;;;;;;;5008598;28;20224;-73
2022/02/05 05:41:38;;;;;;;5.47;2.20;;;;;;;;;;4976824;28;20228;-73
2022/02/05 05:46:48;;;;;;;4.10;1.70;;;;;;;;;;5012569;28;20218;-73
2022/02/05 05:49:22;;;;;;;6.27;1.80;;;;;;;;;;5007387;28;20224;-73
2022/02/05 05:51:50;;;;;;;4.60;2.10;;;;;;;;;;4961188;28;20232;-72
2022/02/05 05:54:16;;;;;;;5.17;1.90;;;;;;;;;;4977266;28;20286;-73
2022/02/05 05:56:46;;;;;;;5.37;2.10;;;;;;;;;;5009546;28;20221;-73
2022/02/05 05:59:14;;;;;;;6.27;2.10;;;;;;;;;;4993295;28;20232;-73
2022/02/05 06:01:43;;;;;;;4.30;2.00;;;;;;;;;;4973482;28;20280;-74
2022/02/05 06:04:09;;;;;;;5.57;1.50;;;;;;;;;;5006565;28;20226;-75
2022/02/05 06:06:34;;;;;;;5.97;2.20;;;;;;;;;;4992509;28;20285;-73
2022/02/05 06:09:00;;;;;;;5.07;1.87;;;;;;;;;;4993262;28;20227;-73
2022/02/05 06:11:30;;;;;;;4.33;1.47;;;;;;;;;;4992510;28;20779;-77
2022/02/05 06:14:03;;;;;;;6.33;1.80;;;;;;;;;;4993667;28;20323;-75
2022/02/05 06:16:34;;;;;;;8.20;1.90;;;;;;;;;;4977982;28;20224;-75
2022/02/05 06:19:00;;;;;;;5.93;1.67;;;;;;;;;;4993852;28;20216;-73
2022/02/05 06:21:25;;;;;;;5.77;1.50;;;;;;;;;;5008805;28;20718;-74
2022/02/05 06:23:55;;;;;;;4.50;1.50;;;;;;;;;;4993387;28;20274;-73
2022/02/05 06:26:21;;;;;;;6.40;1.97;;;;;;;;;;4992645;28;20228;-73
2022/02/05 06:28:49;;;;;;;3.83;1.60;;;;;;;;;;5010222;28;20217;-72
2022/02/05 06:31:17;;;;;;;5.00;1.70;;;;;;;;;;5007637;28;20232;-73
2022/02/05 06:33:42;;;;;;;4.23;1.60;;;;;;;;;;5011186;28;20217;-73
2022/02/05 06:36:10;;;;;;;3.33;1.30;;;;;;;;;;4995900;28;20225;-74
2022/02/05 06:38:37;;;;;;;3.53;1.37;;;;;;;;;;5026677;28;20235;-74
2022/02/05 06:41:03;;;;;;;4.63;1.97;;;;;;;;;;5001928;28;20275;-73
2022/02/05 06:43:28;;;;;;;5.47;1.70;;;;;;;;;;4981105;28;20220;-73
2022/02/05 06:45:58;;;;;;;6.10;1.60;;;;;;;;;;4982207;28;20248;-74
2022/02/05 06:48:26;;;;;;;5.10;1.73;;;;;;;;;;4965999;28;20299;-74
2022/02/05 06:50:54;;;;;;;6.20;2.17;;;;;;;;;;4980596;28;20255;-73
2022/02/05 06:53:24;;;;;;;5.50;2.40;;;;;;;;;;5012281;28;20220;-74
2022/02/05 06:55:54;;;;;;;5.73;2.90;;;;;;;;;;4961646;28;20695;-73
2022/02/05 06:58:20;;;;;;;7.80;3.43;;;;;;;;;;4995310;28;20304;-73
2022/02/05 07:00:45;;;;;;;9.73;3.00;;;;;;;;;;4998770;28;20295;-74
2022/02/05 07:03:16;;;;;;;4.17;2.47;;;;;;;;;;4994968;28;20233;-72
2022/02/05 07:05:42;;;;;;;4.47;3.07;;;;;;;;;;4980165;28;20212;-73
2022/02/05 07:08:07;;;;;;;5.57;2.90;;;;;;;;;;5012114;28;20216;-74
2022/02/05 07:10:33;;;;;;;6.87;2.67;;;;;;;;;;5012539;28;20229;-72
2022/02/05 07:15:45;;;;;;;6.30;2.87;;;;;;;;;;4997535;28;20252;-73
2022/02/05 07:18:23;;;;;;;7.77;2.87;;;;;;;;;;5011850;28;20316;-73
2022/02/05 07:20:58;;;;;;;6.40;2.70;;;;;;;;;;4997237;28;20240;-74
2022/02/05 07:31:22;;;;;;;7.57;2.77;;;;;;;;;;5010224;28;20308;-75
2022/02/05 07:33:53;;;;;;;9.20;3.17;;;;;;;;;;4995155;28;20231;-73
2022/02/05 07:36:19;;;;;;;6.87;3.17;;;;;;;;;;4978078;28;20229;-74
2022/02/05 07:38:47;;;;;;;9.53;3.00;;;;;;;;;;5028372;28;20224;-74
2022/02/05 07:41:13;;;;;;;8.90;3.00;;;;;;;;;;4995436;28;20225;-74
2022/02/05 07:43:41;;;;;;;8.57;3.30;;;;;;;;;;4994737;28;20236;-73
2022/02/05 07:46:07;;;;;;;9.77;3.50;;;;;;;;;;5010850;28;20228;-72
2022/02/05 07:48:33;;;;;;;13.47;3.57;;;;;;;;;;4962726;28;20247;-73
2022/02/05 07:51:01;;;;;;;9.00;3.83;;;;;;;;;;4994104;28;20217;-74
2022/02/05 07:53:27;;;;;;;11.83;4.00;;;;;;;;;;4990664;28;20316;-72
2022/02/05 07:55:55;;;;;;;13.47;4.17;;;;;;;;;;5010035;28;20233;-75
2022/02/05 07:58:21;;;;;;;15.47;4.17;;;;;;;;;;4993938;28;20248;-73
2022/02/05 08:00:47;;;;;;;13.13;3.77;;;;;;;;;;4962197;28;20244;-73
2022/02/05 08:03:13;;;;;;;13.97;3.80;;;;;;;;;;4993632;28;20229;-73
2022/02/05 08:05:39;;;;;;;10.63;3.20;;;;;;;;;;4975741;28;20213;-73
2022/02/05 08:08:11;;;;;;;11.13;3.67;;;;;;;;;;5008294;28;20220;-72
2022/02/05 08:10:49;;;;;;;12.13;3.30;;;;;;;;;;5011000;28;20801;-72
2022/02/05 08:13:15;;;;;;;14.93;3.67;;;;;;;;;;5010356;28;20220;-77
2022/02/05 08:15:50;;;;;;;12.50;3.43;;;;;;;;;;4993906;28;20209;-75
2022/02/05 08:18:18;;;;;;;12.60;3.63;;;;;;;;;;4975806;28;20300;-74
2022/02/05 08:20:46;;;;;;;17.03;3.67;;;;;;;;;;4974507;28;20244;-74
2022/02/05 08:23:14;;;;;;;12.53;3.70;;;;;;;;;;4990578;28;20229;-74
2022/02/05 08:25:44;;;;;;;15.03;3.57;;;;;;;;;;4994267;28;20687;-73
2022/02/05 08:28:10;;;;;;;15.53;3.97;;;;;;;;;;5026846;28;20619;-73
2022/02/05 08:30:35;;;;;;;12.77;3.50;;;;;;;;;;4978563;28;20232;-74
2022/02/05 08:33:04;;;;;;;14.07;3.63;;;;;;;;;;4991463;28;20221;-73
2022/02/05 08:35:29;;;;;;;10.37;3.63;;;;;;;;;;4949251;28;20230;-73
2022/02/05 08:37:57;;;;;;;16.73;3.43;;;;;;;;;;4990363;28;20240;-74
2022/02/05 08:40:25;;;;;;;15.03;3.70;;;;;;;;;;4960252;28;20696;-73
2022/02/05 08:42:53;;;;;;;13.20;3.40;;;;;;;;;;4992071;28;20222;-74
2022/02/05 08:45:19;;;;;;;10.20;2.97;;;;;;;;;;4974990;28;20248;-74
2022/02/05 08:47:47;;;;;;;14.70;3.70;;;;;;;;;;4958381;28;20244;-73
2022/02/05 08:50:15;;;;;;;13.07;3.80;;;;;;;;;;4987584;28;20230;-74
2022/02/05 08:52:41;;;;;;;13.20;4.00;;;;;;;;;;4975215;28;20216;-73
2022/02/05 08:55:09;;;;;;;14.53;3.57;;;;;;;;;;4974681;28;20225;-74
2022/02/05 08:57:35;;;;;;;12.13;3.67;;;;;;;;;;4974685;28;20669;-74
2022/02/05 09:00:11;;;;;;;10.27;2.80;;;;;;;;;;4989531;28;20221;-74
2022/02/05 09:05:15;;;;;;;9.93;2.90;;;;;;;;;;5002354;28;20323;-75
2022/02/05 09:07:43;;;;;;;10.40;3.10;;;;;;;;;;4978928;28;20232;-72
2022/02/05 09:15:34;;;;;;;12.30;3.13;;;;;;;;;;5011229;28;20232;-72
2022/02/05 09:17:59;;;;;;;13.73;3.80;;;;;;;;;;5010589;28;20209;-75
2022/02/05 09:20:28;;;;;;;8.83;2.77;;;;;;;;;;4960836;28;20224;-71
2022/02/05 09:22:58;;;;;;;8.83;2.60;;;;;;;;;;4962755;28;20231;-72
2022/02/05 09:25:26;;;;;;;11.80;2.90;;;;;;;;;;5010995;28;20706;-72
2022/02/05 09:27:53;;;;;;;10.93;3.47;;;;;;;;;;4986883;28;20262;-74
2022/02/05 09:30:29;;;;;;;11.10;2.67;;;;;;;;;;5011856;28;20231;-73
2022/02/05 09:32:57;;;;;;;10.50;2.80;;;;;;;;;;5009641;28;20228;-73
2022/02/05 09:35:23;;;;;;;12.30;2.70;;;;;;;;;;5002122;28;20236;-74
2022/02/05 09:37:50;;;;;;;7.43;2.93;;;;;;;;;;5001591;28;20233;-73
2022/02/05 09:40:18;;;;;;;8.97;3.07;;;;;;;;;;5008981;28;20327;-73
2022/02/05 09:42:45;;;;;;;9.03;3.03;;;;;;;;;;4992563;28;20235;-74
2022/02/05 09:45:14;;;;;;;10.10;3.03;;;;;;;;;;5001846;28;20225;-73
2022/02/05 09:47:43;;;;;;;8.30;3.80;;;;;;;;;;5003431;28;20224;-74
2022/02/05 09:50:12;;;;;;;8.67;2.97;;;;;;;;;;4993371;28;20308;-74
2022/02/05 09:52:40;;;;;;;11.30;3.57;;;;;;;;;;5014293;28;20224;-74
2022/02/05 09:55:06;;;;;;;11.53;3.10;;;;;;;;;;5008362;28;20312;-73
2022/02/05 09:57:34;;;;;;;12.27;3.20;;;;;;;;;;5013349;28;20229;-73
2022/02/05 10:00:04;;;;;;;11.53;3.23;;;;;;;;;;5011717;28;20303;-73
2022/02/05 10:02:39;;;;;;;9.53;3.07;;;;;;;;;;5007271;28;20221;-74
2022/02/05 10:05:16;;;;;;;9.93;3.20;;;;;;;;;;4994107;28;20224;-74
2022/02/05 10:08:07;;;;;;;9.40;2.40;;;;;;;;;;4989416;28;20228;-73
2022/02/05 10:10:40;;;;;;;14.70;3.10;;;;;;;;;;5012817;28;20225;-73
2022/02/05 10:13:21;;;;;;;11.97;3.70;;;;;;;;;;5013424;28;20228;-73
2022/02/05 10:15:55;;;;;;;9.43;3.37;;;;;;;;;;4998359;28;20370;-73
2022/02/05 10:18:34;;;;;;;11.87;3.33;;;;;;;;;;4964544;28;20290;-73
2022/02/05 10:21:23;;;;;;;10.43;3.80;;;;;;;;;;4996628;28;20614;-74
2022/02/05 10:24:21;;;;;;;7.17;2.90;;;;;;;;;;5031976;28;20247;-75
2022/02/05 10:26:49;;;;;;;10.60;3.03;;;;;;;;;;4969112;28;20249;-75
2022/02/05 10:29:18;;;;;;;10.70;3.93;;;;;;;;;;4978043;28;20585;-74
2022/02/05 10:31:57;;;;;;;10.50;4.00;;;;;;;;;;4976631;28;20226;-73
2022/02/05 10:34:24;;;;;;;9.57;3.93;;;;;;;;;;4974297;28;20272;-73
2022/02/05 10:37:22;;;;;;;15.87;4.20;;;;;;;;;;4988675;28;20304;-73
2022/02/05 10:45:12;;;;;;;12.97;3.90;;;;;;;;;;4979681;28;20252;-74
2022/02/05 10:48:09;;;;;;;15.27;4.13;;;;;;;;;;4993579;28;20249;-74
2022/02/05 10:50:37;;;;;;;11.53;3.63;;;;;;;;;;4991808;28;20233;-73
2022/02/05 10:53:12;;;;;;;14.00;3.37;;;;;;;;;;4992319;28;20244;-73
2022/02/05 10:55:55;;;;;;;10.10;3.30;;;;;;;;;;4977934;28;20363;-73
2022/02/05 11:07:16;;;;;;;12.20;3.30;;;;;;;;;;4994748;28;20702;-75
2022/02/05 11:09:43;;;;;;;11.13;2.80;;;;;;;;;;4962368;28;20241;-72
2022/02/05 11:20:09;;;;;;;10.23;2.67;;;;;;;;;;4993432;28;20225;-74
2022/02/05 11:22:40;;;;;;;10.97;2.97;;;;;;;;;;4971205;28;20225;-73
2022/02/05 11:25:09;;;;;;;8.23;2.50;;;;;;;;;;4995746;28;20220;-75
2022/02/05 11:27:40;;;;;;;7.77;2.53;;;;;;;;;;4989275;28;20270;-72
2022/02/05 11:30:27;;;;;;;8.27;3.00;;;;;;;;;;4981412;28;20231;-74
2022/02/05 11:32:59;;;;;;;8.00;2.53;;;;;;;;;;5013261;28;20300;-73
2022/02/05 11:35:41;;;;;;;11.60;2.70;;;;;;;;;;4991164;28;20220;-74
2022/02/05 11:38:12;;;;;;;10.30;2.73;;;;;;;;;;5010961;28;20221;-73
2022/02/05 11:40:52;;;;;;;9.63;2.70;;;;;;;;;;4973135;28;20259;-73
2022/02/05 11:43:22;;;;;;;10.07;3.47;;;;;;;;;;5012547;28;20847;-73
2022/02/05 11:46:06;;;;;;;15.00;3.50;;;;;;;;;;4995847;28;20324;-73
2022/02/05 11:48:55;;;;;;;10.50;3.07;;;;;;;;;;5007918;28;20366;-75
2022/02/05 11:51:24;;;;;;;9.50;2.90;;;;;;;;;;5010896;28;20225;-74
2022/02/05 11:53:58;;;;;;;10.17;2.53;;;;;;;;;;5011885;28;20371;-73
2022/02/05 11:56:51;;;;;;;12.73;2.70;;;;;;;;;;5004484;28;20702;-74
2022/02/05 11:59:24;;;;;;;9.60;2.70;;;;;;;;;;5010311;28;20228;-75
2022/02/05 12:02:14;;;;;;;7.13;2.50;;;;;;;;;;5010459;28;20248;-73
2022/02/05 12:04:39;;;;;;;9.37;2.90;;;;;;;;;;4996879;28;20232;-74
2022/02/05 12:07:06;;;;;;;9.33;2.60;;;;;;;;;;4993756;28;20291;-73
2022/02/05 12:09:33;;;;;;;7.33;2.50;;;;;;;;;;4993989;28;20230;-73
2022/02/05 12:12:26;;;;;;;9.50;3.53;;;;;;;;;;4994156;28;20362;-73
2022/02/05 12:15:14;;;;;;;10.57;2.67;;;;;;;;;;5012486;28;20581;-73
2022/02/05 12:20:27;;;;;;;7.83;2.93;;;;;;;;;;5009975;28;20256;-73
2022/02/05 12:23:26;;;;;;;12.40;4.00;;;;;;;;;;4992783;28;20218;-73
2022/02/05 12:25:56;;;;;;;10.80;3.20;;;;;;;;;;4982177;28;20690;-74
2022/02/05 12:28:43;;;;;;;15.20;3.87;;;;;;;;;;5010402;28;20248;-72
2022/02/05 12:31:17;;;;;;;7.73;2.80;;;;;;;;;;4987449;28;20225;-73
2022/02/05 12:33:49;;;;;;;9.97;2.60;;;;;;;;;;5007581;28;20223;-74
2022/02/05 12:36:47;;;;;;;9.13;3.00;;;;;;;;;;5003648;28;20307;-74
2022/02/05 12:39:26;;;;;;;11.80;3.13;;;;;;;;;;4976300;28;20225;-73
2022/02/05 12:42:01;;;;;;;7.47;2.43;;;;;;;;;;4999062;28;20382;-73
2022/02/05 12:44:31;;;;;;;11.47;2.80;;;;;;;;;;4994836;28;20239;-74
2022/02/05 12:47:08;;;;;;;9.47;2.77;;;;;;;;;;4994641;28;20651;-73
2022/02/05 12:52:02;;;;;;;9.50;2.50;;;;;;;;;;4961177;28;20723;-73
2022/02/05 12:54:34;;;;;;;9.07;2.50;;;;;;;;;;4992658;28;20225;-74
2022/02/05 12:57:00;;;;;;;8.73;2.43;;;;;;;;;;4974964;28;20232;-74
2022/02/05 12:59:35;;;;;;;6.10;2.30;;;;;;;;;;4981724;28;20229;-73
2022/02/05 13:02:07;;;;;;;7.67;2.40;;;;;;;;;;4965050;28;20648;-75
2022/02/05 13:04:35;;;;;;;7.80;2.50;;;;;;;;;;4971835;28;20245;-73
2022/02/05 13:07:11;;;;;;;7.90;2.70;;;;;;;;;;4973122;28;20214;-74
2022/02/05 13:09:47;;;;;;;6.73;2.40;;;;;;;;;;4971034;28;20225;-73
2022/02/05 13:12:17;;;;;;;9.17;2.60;;;;;;;;;;4970984;28;20847;-73
2022/02/05 13:15:01;;;;;;;8.17;2.60;;;;;;;;;;4958599;28;20229;-73
2022/02/05 13:26:12;;;;;;;7.47;2.30;;;;;;;;;;5007031;28;20260;-72
2022/02/05 13:28:53;;;;;;;9.83;2.70;;;;;;;;;;4992295;28;20231;-73
2022/02/05 13:34:23;;;;;;;8.97;2.50;;;;;;;;;;5004710;28;20224;-72
2022/02/05 13:42:08;;;;;;;6.40;2.20;;;;;;;;;;5011425;28;20745;-74
2022/02/05 13:47:34;;;;;;;7.43;2.10;;;;;;;;;;4997375;28;20263;-73
2022/02/05 13:50:25;;;;;;;8.77;2.70;;;;;;;;;;4996931;28;20228;-73
2022/02/05 13:52:55;;;;;;;8.60;2.90;;;;;;;;;;4997194;28;20722;-73
2022/02/05 13:55:40;;;;;;;8.83;2.90;;;;;;;;;;4981878;28;20240;-73
2022/02/05 13:58:10;;;;;;;5.77;2.10;;;;;;;;;;4996469;28;20208;-73
2022/02/05 14:00:43;;;;;;;9.40;3.07;;;;;;;;;;4996573;28;20223;-73
2022/02/05 14:03:09;;;;;;;8.17;2.80;;;;;;;;;;5001017;28;20219;-72
2022/02/05 14:05:44;;;;;;;6.60;2.40;;;;;;;;;;5008472;28;20634;-73
2022/02/05 14:08:09;;;;;;;6.63;2.70;;;;;;;;;;5013388;28;20216;-72
2022/02/05 14:10:39;;;;;;;6.77;2.57;;;;;;;;;;5023199;28;20748;-72
2022/02/05 14:13:05;;;;;;;7.40;2.13;;;;;;;;;;5007733;28;20219;-73
2022/02/05 14:15:50;;;;;;;6.93;2.50;;;;;;;;;;4991549;28;20320;-75
2022/02/05 14:18:18;;;;;;;6.63;1.90;;;;;;;;;;4996588;28;20599;-74
2022/02/05 14:20:59;;;;;;;6.90;2.00;;;;;;;;;;4998933;28;20279;-72
2022/02/05 14:23:29;;;;;;;5.03;2.37;;;;;;;;;;4997348;28;20655;-72
2022/02/05 14:26:04;;;;;;;9.30;2.60;;;;;;;;;;5014194;28;20612;-74
2022/02/05 14:28:44;;;;;;;9.47;2.73;;;;;;;;;;4991078;28;20307;-75
2022/02/05 14:41:44;;;;;;;8.97;2.47;;;;;;;;;;5011023;28;20227;-72
2022/02/05 14:44:11;;;;;;;6.37;2.63;;;;;;;;;;5021202;28;20233;-73
2022/02/05 14:46:36;;;;;;;7.93;2.33;;;;;;;;;;4981630;28;20263;-72
2022/02/05 14:49:07;;;;;;;9.30;2.90;;;;;;;;;;5012559;28;20766;-73
2022/02/05 14:51:33;;;;;;;6.27;2.80;;;;;;;;;;4995185;28;20765;-71
2022/02/05 14:53:59;;;;;;;7.60;2.77;;;;;;;;;;5001875;28;20216;-75
2022/02/05 14:56:27;;;;;;;4.60;2.37;;;;;;;;;;5013330;28;20630;-73
2022/02/05 14:58:52;;;;;;;7.40;2.70;;;;;;;;;;4996095;28;20692;-74
2022/02/05 15:01:23;;;;;;;5.90;2.20;;;;;;;;;;5012260;28;20291;-73
2022/02/05 15:03:54;;;;;;;10.07;2.73;;;;;;;;;;5008460;28;20225;-74
2022/02/05 15:06:26;;;;;;;8.40;2.27;;;;;;;;;;4980006;28;20216;-73
2022/02/05 15:08:52;;;;;;;7.07;2.37;;;;;;;;;;4997391;28;20304;-75
2022/02/05 15:11:18;;;;;;;5.63;2.77;;;;;;;;;;5002435;28;20221;-74
2022/02/05 15:13:47;;;;;;;10.10;2.77;;;;;;;;;;4980794;28;20251;-73
2022/02/05 15:16:17;;;;;;;6.53;2.83;;;;;;;;;;4988306;28;20227;-72
2022/02/05 15:19:03;;;;;;;7.20;2.77;;;;;;;;;;5012802;28;20224;-74
2022/02/05 15:21:31;;;;;;;6.03;2.63;;;;;;;;;;5012657;28;20235;-72
2022/02/05 15:23:59;;;;;;;7.13;2.47;;;;;;;;;;4996783;28;20251;-72
2022/02/05 15:26:31;;;;;;;7.13;2.37;;;;;;;;;;5012565;28;20229;-72
2022/02/05 15:29:01;;;;;;;5.70;2.23;;;;;;;;;;5011134;28;20221;-72
2022/02/05 15:31:32;;;;;;;5.53;2.30;;;;;;;;;;4995429;28;20239;-72
2022/02/05 15:34:01;;;;;;;9.07;2.50;;;;;;;;;;4995180;28;20287;-72
2022/02/05 15:44:09;;;;;;;7.73;2.73;;;;;;;;;;4996414;28;20726;-71
2022/02/05 15:46:36;;;;;;;7.60;2.87;;;;;;;;;;4994596;28;20328;-73
2022/02/05 15:49:05;;;;;;;4.90;2.30;;;;;;;;;;4985405;28;20263;-73
2022/02/05 15:51:33;;;;;;;6.23;2.23;;;;;;;;;;5012744;28;20227;-71
2022/02/05 15:54:03;;;;;;;5.50;2.50;;;;;;;;;;5012229;28;20294;-73
2022/02/05 15:56:56;;;;;;;7.90;2.80;;;;;;;;;;5008804;28;20670;-73
2022/02/05 15:59:28;;;;;;;6.43;2.40;;;;;;;;;;5013014;28;20599;-73
2022/02/05 16:01:56;;;;;;;7.97;2.40;;;;;;;;;;5009922;28;20212;-73
2022/02/05 16:04:22;;;;;;;12.03;2.70;;;;;;;;;;5009273;28;20217;-74
2022/02/05 16:06:52;;;;;;;6.00;2.57;;;;;;;;;;4995386;28;20221;-73
2022/02/05 16:09:22;;;;;;;7.23;3.30;;;;;;;;;;5004705;28;20739;-75
2022/02/05 16:11:48;;;;;;;8.33;2.83;;;;;;;;;;4996294;28;20248;-75
2022/02/05 16:14:13;;;;;;;7.83;3.33;;;;;;;;;;5011865;28;20287;-74
2022/02/05 16:16:41;;;;;;;8.17;3.37;;;;;;;;;;5011690;28;20255;-73
2022/02/05 16:19:09;;;;;;;5.93;2.60;;;;;;;;;;4990886;28;20205;-75
2022/02/05 16:21:34;;;;;;;6.20;2.87;;;;;;;;;;4975526;28;20220;-73
2022/02/05 16:24:00;;;;;;;5.77;2.50;;;;;;;;;;5027132;28;20231;-74
2022/02/05 16:26:25;;;;;;;6.87;2.90;;;;;;;;;;4994183;28;20233;-74
2022/02/05 16:28:53;;;;;;;8.83;3.00;;;;;;;;;;4995122;28;20220;-71
2022/02/05 16:31:21;;;;;;;6.80;3.60;;;;;;;;;;5011041;28;20225;-73
2022/02/05 16:33:56;;;;;;;4.97;2.83;;;;;;;;;;5026225;28;20212;-72
2022/02/05 16:36:27;;;;;;;8.23;3.60;;;;;;;;;;5010692;28;20234;-73
2022/02/05 16:38:59;;;;;;;6.17;3.37;;;;;;;;;;4974505;28;20223;-74
2022/02/05 16:41:25;;;;;;;9.87;3.30;;;;;;;;;;5005883;28;20231;-76
2022/02/05 16:43:55;;;;;;;10.00;2.57;;;;;;;;;;5000755;28;20232;-73
2022/02/05 16:46:23;;;;;;;10.07;3.03;;;;;;;;;;5014226;28;20620;-74
2022/02/05 16:48:53;;;;;;;7.30;2.90;;;;;;;;;;5026880;28;20217;-74
2022/02/05 16:51:21;;;;;;;5.43;2.50;;;;;;;;;;5018604;28;20235;-73
2022/02/05 16:53:50;;;;;;;6.57;2.80;;;;;;;;;;4988384;28;20213;-74
2022/02/05 16:56:17;;;;;;;7.10;2.70;;;;;;;;;;5021021;28;20252;-73
2022/02/05 16:58:46;;;;;;;6.60;2.60;;;;;;;;;;4998958;28;20221;-72
2022/02/05 17:01:14;;;;;;;9.30;2.50;;;;;;;;;;5002066;28;20238;-73
2022/02/05 17:03:43;;;;;;;4.27;2.40;;;;;;;;;;4989865;28;20255;-74
2022/02/05 17:06:11;;;;;;;7.63;2.90;;;;;;;;;;4999674;28;20224;-73
2022/02/05 17:08:38;;;;;;;5.97;2.47;;;;;;;;;;5011759;28;20279;-73
2022/02/05 17:11:11;;;;;;;7.80;2.50;;;;;;;;;;5004670;28;20275;-73
2022/02/05 17:13:40;;;;;;;5.67;2.47;;;;;;;;;;5017767;28;20228;-74
2022/02/05 17:16:06;;;;;;;6.50;2.43;;;;;;;;;;5000161;28;20217;-73
2022/02/05 17:18:36;;;;;;;6.30;2.30;;;;;;;;;;5011547;28;20593;-72
2022/02/05 17:21:02;;;;;;;7.90;2.47;;;;;;;;;;5006825;28;20248;-72
2022/02/05 17:23:33;;;;;;;4.50;2.30;;;;;;;;;;4994101;28;20221;-72
2022/02/05 17:26:02;;;;;;;3.87;2.07;;;;;;;;;;5012591;28;20303;-73
2022/02/05 17:28:33;;;;;;;8.23;2.40;;;;;;;;;;5013969;28;20590;-72
2022/02/05 17:31:03;;;;;;;6.97;1.90;;;;;;;;;;4977555;28;20217;-73
2022/02/05 17:33:29;;;;;;;5.67;2.07;;;;;;;;;;5017073;28;20230;-74
2022/02/05 17:36:02;;;;;;;6.47;2.43;;;;;;;;;;4992102;28;20216;-74
2022/02/05 17:38:28;;;;;;;4.60;2.00;;;;;;;;;;4999065;28;20792;-72
2022/02/05 17:40:57;;;;;;;6.53;2.20;;;;;;;;;;5029538;28;20243;-72
2022/02/05 17:43:22;;;;;;;7.70;2.70;;;;;;;;;;4997286;28;20318;-74
2022/02/05 17:45:51;;;;;;;8.77;2.60;;;;;;;;;;5014793;28;20298;-74
2022/02/05 17:48:19;;;;;;;6.67;2.47;;;;;;;;;;4983409;28;20224;-73
2022/02/05 17:50:54;;;;;;;5.77;2.70;;;;;;;;;;5015799;28;20224;-73
2022/02/05 17:53:21;;;;;;;4.73;2.40;;;;;;;;;;5001896;28;20217;-73
2022/02/05 17:55:47;;;;;;;7.77;4.17;;;;;;;;;;5028579;28;20224;-73
2022/02/05 17:58:16;;;;;;;22.23;12.87;;;;;;;;;;4993549;28;20304;-74
2022/02/05 18:00:46;;;;;;;12.23;5.63;;;;;;;;;;5005558;28;20224;-73
2022/02/05 18:03:12;;;;;;;10.80;4.50;;;;;;;;;;5024946;28;20233;-73
2022/02/05 18:05:49;;;;;;;7.10;3.17;;;;;;;;;;4976356;28;20706;-73
2022/02/05 18:15:55;;;;;;;6.83;3.17;;;;;;;;;;5010117;28;20715;-73
2022/02/05 18:18:23;;;;;;;5.93;2.80;;;;;;;;;;4993704;28;20266;-73
2022/02/05 18:20:51;;;;;;;5.47;2.70;;;;;;;;;;4993724;28;20232;-73
2022/02/05 18:23:19;;;;;;;7.47;3.17;;;;;;;;;;5008727;28;20244;-73
2022/02/05 18:25:44;;;;;;;4.23;2.50;;;;;;;;;;5018183;28;20220;-74
2022/02/05 18:28:12;;;;;;;7.00;2.70;;;;;;;;;;5019307;28;20717;-71
2022/02/05 18:30:41;;;;;;;3.83;2.23;;;;;;;;;;4968950;28;20221;-72